Time;durP1;ratioP1;P1;durP2;ratioP2;P2;SDS_P1;SDS_P2;PMS_P1;PMS_P2;Temp;Humidity;BMP_temperature;BMP_pressure;BME280_temperature;BME280_humidity;BME280_pressure;Samples;Min_cycle;Max_cycle;Signal;HPM_P1;HPM_P2
2023/03/04 00:01:28;;;;;;;51.78;22.38;;;;;;;0.66;72.13;98628.75;5089572;28;20088;-81
2023/03/04 00:03:54;;;;;;;52.75;21.92;;;;;;;0.67;71.84;98626.88;5082469;28;20032;-84
2023/03/04 00:06:19;;;;;;;51.92;22.20;;;;;;;0.68;71.58;98620.41;5083354;28;21356;-84
2023/03/04 00:08:45;;;;;;;53.58;22.33;;;;;;;0.68;71.59;98625.81;5059889;28;20063;-82
2023/03/04 00:11:10;;;;;;;47.90;20.77;;;;;;;0.69;71.65;98620.22;5082037;28;20063;-83
2023/03/04 00:13:36;;;;;;;52.78;21.67;;;;;;;0.68;71.93;98612.31;5084795;28;20024;-86
2023/03/04 00:16:01;;;;;;;50.70;21.10;;;;;;;0.66;71.71;98604.47;5094433;28;20468;-87
2023/03/04 00:18:27;;;;;;;53.97;21.90;;;;;;;0.64;71.87;98611.13;5089246;28;20077;-86
2023/03/04 00:20:52;;;;;;;48.03;20.20;;;;;;;0.62;71.45;98610.53;5084285;28;20032;-82
2023/03/04 00:23:17;;;;;;;48.97;20.98;;;;;;;0.58;71.61;98604.78;5083293;28;20111;-80
2023/03/04 00:25:43;;;;;;;47.92;21.10;;;;;;;0.59;72.06;98599.16;5079420;28;20032;-77
2023/03/04 00:28:08;;;;;;;48.92;21.65;;;;;;;0.58;71.54;98597.50;5086319;28;20043;-81
2023/03/04 00:30:34;;;;;;;49.85;21.08;;;;;;;0.57;71.71;98601.25;5065702;28;20115;-83
2023/03/04 00:32:59;;;;;;;56.72;23.05;;;;;;;0.55;71.80;98603.38;5081371;28;20131;-79
2023/03/04 00:35:25;;;;;;;45.92;21.23;;;;;;;0.51;71.61;98583.28;5082943;28;20051;-88
2023/03/04 00:37:50;;;;;;;53.60;21.58;;;;;;;0.50;71.47;98592.41;5088292;28;20055;-85
2023/03/04 00:40:16;;;;;;;51.08;21.77;;;;;;;0.50;71.61;98586.19;5082737;28;20060;-86
2023/03/04 00:42:41;;;;;;;52.80;21.85;;;;;;;0.48;71.58;98575.63;5076432;28;20024;-84
2023/03/04 00:45:08;;;;;;;53.42;21.92;;;;;;;0.44;71.80;98574.44;5081300;28;20040;-85
2023/03/04 00:47:33;;;;;;;48.90;21.63;;;;;;;0.39;71.68;98572.44;5081426;28;20054;-87
2023/03/04 00:49:58;;;;;;;45.67;20.75;;;;;;;0.38;71.32;98573.47;5067597;28;20039;-88
2023/03/04 00:52:24;;;;;;;48.05;20.60;;;;;;;0.38;71.68;98565.38;5081869;28;20049;-87
2023/03/04 00:54:49;;;;;;;55.75;23.80;;;;;;;0.38;71.63;98565.38;5064829;28;20056;-88
2023/03/04 00:57:14;;;;;;;52.30;23.27;;;;;;;0.38;71.87;98570.78;5081176;28;20027;-80
2023/03/04 00:59:42;;;;;;;47.30;20.40;;;;;;;0.37;72.06;98563.75;5087606;28;20464;-80
2023/03/04 01:02:08;;;;;;;51.00;21.17;;;;;;;0.35;71.88;98546.13;5082375;28;20016;-81
2023/03/04 01:04:34;;;;;;;44.20;20.35;;;;;;;0.32;72.14;98543.88;5084675;28;20034;-81
2023/03/04 01:06:59;;;;;;;47.53;21.50;;;;;;;0.29;72.13;98537.06;5066495;28;20835;-81
2023/03/04 01:09:25;;;;;;;48.95;21.10;;;;;;;0.27;71.96;98531.88;5084622;28;20024;-82
2023/03/04 01:11:51;;;;;;;45.63;20.50;;;;;;;0.24;72.01;98534.22;5085538;28;20031;-81
2023/03/04 01:14:17;;;;;;;49.65;21.90;;;;;;;0.21;72.36;98530.09;5071791;28;20032;-81
2023/03/04 01:16:43;;;;;;;41.10;18.88;;;;;;;0.21;72.49;98522.00;5087213;28;20024;-81
2023/03/04 01:19:08;;;;;;;48.50;21.42;;;;;;;0.20;72.14;98523.06;5079739;28;20029;-81
2023/03/04 01:21:33;;;;;;;48.72;21.08;;;;;;;0.21;72.38;98526.56;5080456;28;20029;-81
2023/03/04 01:23:59;;;;;;;46.00;19.40;;;;;;;0.17;72.58;98512.75;5081953;28;20062;-80
2023/03/04 01:26:24;;;;;;;45.47;20.20;;;;;;;0.15;71.89;98509.44;5081261;28;20103;-81
2023/03/04 01:28:50;;;;;;;42.42;19.75;;;;;;;0.17;71.92;98501.09;5078760;28;20025;-82
2023/03/04 01:31:15;;;;;;;52.25;22.08;;;;;;;0.16;72.39;98503.00;5080889;28;20107;-81
2023/03/04 01:33:41;;;;;;;45.83;19.95;;;;;;;0.13;72.20;98506.16;5085321;28;20035;-82
2023/03/04 01:36:06;;;;;;;48.03;21.10;;;;;;;0.13;71.92;98501.56;5091414;28;20028;-81
2023/03/04 01:38:32;;;;;;;50.97;20.98;;;;;;;0.13;71.98;98489.97;5084864;28;20031;-82
2023/03/04 01:40:57;;;;;;;46.05;20.42;;;;;;;0.16;71.86;98485.97;5086196;28;20040;-82
2023/03/04 01:43:27;;;;;;;48.63;20.88;;;;;;;0.17;72.13;98474.13;5090371;28;20499;-82
2023/03/04 01:45:55;;;;;;;50.25;20.90;;;;;;;0.18;72.23;98475.78;5079946;28;20031;-82
2023/03/04 01:48:25;;;;;;;46.85;20.02;;;;;;;0.16;71.93;98473.31;5083006;28;20019;-81
2023/03/04 01:50:50;;;;;;;46.95;19.10;;;;;;;0.16;72.00;98461.69;5086542;28;20063;-82
2023/03/04 01:53:24;;;;;;;47.58;20.50;;;;;;;0.13;71.76;98463.00;5085240;28;20476;-81
2023/03/04 01:55:53;;;;;;;46.88;21.02;;;;;;;0.13;71.78;98458.41;5082917;28;20067;-81
2023/03/04 01:58:18;;;;;;;49.35;20.45;;;;;;;0.14;72.44;98457.34;5087030;28;20036;-81
2023/03/04 02:00:44;;;;;;;51.10;20.92;;;;;;;0.12;72.49;98451.38;5088204;28;20019;-82
2023/03/04 02:03:14;;;;;;;49.45;21.13;;;;;;;0.09;72.28;98456.41;5086064;28;20054;-82
2023/03/04 02:05:43;;;;;;;49.10;20.33;;;;;;;0.09;72.13;98442.91;5082857;28;20024;-82
2023/03/04 02:08:09;;;;;;;49.45;20.58;;;;;;;0.11;72.54;98444.31;5069372;28;20076;-82
2023/03/04 02:10:35;;;;;;;49.22;21.30;;;;;;;0.09;72.13;98442.91;5081463;28;20020;-82
2023/03/04 02:13:01;;;;;;;46.78;19.90;;;;;;;0.06;72.41;98433.41;5082934;28;20469;-82
2023/03/04 02:15:27;;;;;;;48.08;19.63;;;;;;;0.04;72.36;98443.59;5084551;28;20088;-82
2023/03/04 02:17:53;;;;;;;47.72;20.60;;;;;;;0.02;72.65;98434.09;5086932;28;20113;-82
2023/03/04 02:20:27;;;;;;;48.08;19.58;;;;;;;-0.01;72.28;98441.59;5087630;28;20019;-82
2023/03/04 02:23:10;;;;;;;47.88;19.98;;;;;;;-0.01;72.30;98433.50;5080590;28;20126;-82
2023/03/04 02:25:44;;;;;;;50.20;20.10;;;;;;;-0.01;72.12;98422.72;5069191;28;20584;-82
2023/03/04 02:28:09;;;;;;;46.20;19.17;;;;;;;-0.03;72.57;98432.09;5089987;28;20084;-82
2023/03/04 02:30:35;;;;;;;47.35;20.23;;;;;;;-0.02;72.39;98431.03;5080584;28;20602;-81
2023/03/04 02:33:00;;;;;;;44.80;19.15;;;;;;;-0.02;72.53;98431.84;5085596;28;20095;-81
2023/03/04 02:35:26;;;;;;;50.03;20.33;;;;;;;0.00;72.65;98426.25;5087289;28;20029;-81
2023/03/04 02:37:51;;;;;;;49.83;20.85;;;;;;;0.01;72.19;98433.25;5085254;28;20028;-81
2023/03/04 02:40:25;;;;;;;49.10;19.52;;;;;;;0.02;72.15;98429.50;5087096;28;20403;-82
2023/03/04 02:42:51;;;;;;;50.55;19.08;;;;;;;-0.01;72.02;98421.91;5065362;28;20028;-82
2023/03/04 02:45:36;;;;;;;43.17;18.25;;;;;;;0.00;72.12;98415.47;5087800;28;20028;-81
2023/03/04 02:48:02;;;;;;;42.17;18.80;;;;;;;0.00;72.19;98410.06;5061689;28;20390;-82
2023/03/04 02:50:32;;;;;;;41.45;18.08;;;;;;;0.00;72.25;98396.59;5087070;28;20024;-82
2023/03/04 02:52:57;;;;;;;46.35;17.90;;;;;;;-0.03;72.21;98394.34;5087541;28;20020;-81
2023/03/04 02:55:24;;;;;;;44.05;18.27;;;;;;;-0.06;72.00;98394.78;5090100;28;20031;-81
2023/03/04 02:57:49;;;;;;;45.00;19.40;;;;;;;-0.06;72.43;98389.41;5081903;28;20040;-82
2023/03/04 03:00:15;;;;;;;45.72;19.02;;;;;;;-0.05;71.82;98391.06;5084328;28;20019;-81
2023/03/04 03:02:40;;;;;;;47.55;19.75;;;;;;;-0.05;72.01;98388.34;5052133;28;20028;-82
2023/03/04 03:05:06;;;;;;;44.67;18.08;;;;;;;-0.09;72.07;98387.97;5085320;28;20036;-82
2023/03/04 03:07:33;;;;;;;46.75;18.48;;;;;;;-0.10;72.26;98388.22;5086934;28;20035;-82
2023/03/04 03:09:59;;;;;;;49.47;18.92;;;;;;;-0.11;71.80;98376.59;5083388;28;20028;-82
2023/03/04 03:12:25;;;;;;;46.90;19.77;;;;;;;-0.09;72.29;98374.50;5087446;28;20024;-82
2023/03/04 03:14:50;;;;;;;50.22;20.27;;;;;;;-0.10;72.22;98367.47;5078108;28;20042;-83
2023/03/04 03:17:15;;;;;;;42.50;18.15;;;;;;;-0.08;72.34;98375.34;5082102;28;20019;-82
2023/03/04 03:19:41;;;;;;;45.42;19.23;;;;;;;-0.06;72.03;98381.31;5080890;28;20030;-84
2023/03/04 03:22:07;;;;;;;46.55;19.38;;;;;;;-0.02;72.27;98377.13;5085657;28;20173;-81
2023/03/04 03:24:33;;;;;;;44.17;17.90;;;;;;;0.01;71.72;98371.25;5083641;28;20063;-84
2023/03/04 03:26:58;;;;;;;44.35;18.15;;;;;;;0.04;72.04;98372.66;5061357;28;20030;-81
2023/03/04 03:29:24;;;;;;;45.80;20.17;;;;;;;0.03;71.56;98377.22;5084945;28;20490;-81
2023/03/04 03:31:49;;;;;;;46.85;19.80;;;;;;;-0.02;71.94;98369.84;5089167;28;20025;-81
2023/03/04 03:34:14;;;;;;;42.97;17.17;;;;;;;-0.04;71.58;98373.81;5088140;28;20020;-83
2023/03/04 03:36:40;;;;;;;44.55;18.42;;;;;;;-0.02;71.50;98385.22;5075444;28;20024;-83
2023/03/04 03:39:05;;;;;;;45.42;19.52;;;;;;;-0.03;71.85;98378.97;5058087;28;20769;-79
2023/03/04 03:41:30;;;;;;;42.63;16.90;;;;;;;-0.02;71.49;98372.53;5066729;28;20048;-80
2023/03/04 03:43:56;;;;;;;44.72;18.73;;;;;;;0.01;71.83;98375.81;5060628;28;20028;-79
2023/03/04 03:46:21;;;;;;;40.58;16.88;;;;;;;0.03;72.02;98376.41;5080986;28;20118;-80
2023/03/04 03:48:47;;;;;;;43.55;18.10;;;;;;;0.05;71.61;98382.41;5083819;28;20551;-79
2023/03/04 03:51:12;;;;;;;43.25;17.23;;;;;;;0.05;71.80;98377.81;5086199;28;20107;-79
2023/03/04 03:53:37;;;;;;;41.05;17.60;;;;;;;0.06;71.86;98378.66;5080989;28;20754;-80
2023/03/04 03:56:03;;;;;;;46.85;18.67;;;;;;;0.05;71.84;98369.72;5075085;28;20093;-80
2023/03/04 03:58:30;;;;;;;44.22;17.80;;;;;;;0.06;71.59;98367.88;5077534;28;20457;-80
2023/03/04 04:00:55;;;;;;;44.42;19.02;;;;;;;0.03;71.69;98374.53;5082723;28;20047;-80
2023/03/04 04:03:21;;;;;;;46.58;18.05;;;;;;;0.02;71.55;98372.88;5083194;28;20484;-80
2023/03/04 04:05:47;;;;;;;49.78;21.60;;;;;;;0.03;71.62;98373.72;5068243;28;20440;-80
2023/03/04 04:08:14;;;;;;;59.22;23.95;;;;;;;0.04;71.78;98367.28;5084452;28;20024;-80
2023/03/04 04:10:40;;;;;;;54.08;21.95;;;;;;;0.06;71.67;98367.88;5083864;28;20073;-80
2023/03/04 04:13:06;;;;;;;47.70;19.58;;;;;;;0.07;71.47;98366.81;5075413;28;20024;-80
2023/03/04 04:15:31;;;;;;;46.75;18.27;;;;;;;0.03;71.74;98360.25;5080494;28;20028;-80
2023/03/04 04:17:57;;;;;;;49.63;18.25;;;;;;;-0.03;71.55;98365.50;5067779;28;20078;-80
2023/03/04 04:20:22;;;;;;;45.35;18.60;;;;;;;-0.07;71.08;98358.09;5067098;28;20031;-80
2023/03/04 04:22:47;;;;;;;42.80;16.77;;;;;;;-0.08;71.31;98365.34;5085735;28;20535;-80
2023/03/04 04:25:13;;;;;;;42.88;17.02;;;;;;;-0.10;71.75;98377.44;5085033;28;20024;-80
2023/03/04 04:27:38;;;;;;;42.90;17.85;;;;;;;-0.11;71.74;98373.91;5090703;28;20031;-80
2023/03/04 04:30:04;;;;;;;48.60;19.80;;;;;;;-0.17;71.44;98380.19;5080098;28;20532;-77
2023/03/04 04:32:30;;;;;;;42.75;16.83;;;;;;;-0.23;71.26;98370.34;5087052;28;20044;-80
2023/03/04 04:34:55;;;;;;;44.55;17.33;;;;;;;-0.27;71.76;98369.16;5082795;28;20407;-80
2023/03/04 04:37:21;;;;;;;42.55;16.33;;;;;;;-0.28;71.23;98378.28;5066738;28;20028;-80
2023/03/04 04:39:46;;;;;;;52.85;18.45;;;;;;;-0.29;71.52;98373.94;5089637;28;20095;-80
2023/03/04 04:42:11;;;;;;;44.63;17.92;;;;;;;-0.24;71.61;98379.50;5090804;28;20028;-80
2023/03/04 04:44:37;;;;;;;84.68;24.63;;;;;;;-0.23;71.80;98373.06;5088443;28;20036;-80
2023/03/04 04:47:05;;;;;;;84.55;24.25;;;;;;;-0.22;71.83;98380.09;5083698;28;20027;-80
2023/03/04 04:49:31;;;;;;;50.47;19.20;;;;;;;-0.22;71.93;98375.50;5081270;28;20465;-80
2023/03/04 04:51:56;;;;;;;45.40;18.33;;;;;;;-0.22;71.68;98374.69;5083052;28;20035;-80
2023/03/04 04:54:22;;;;;;;55.65;19.58;;;;;;;-0.23;71.31;98381.94;5085115;28;20020;-80
2023/03/04 04:56:47;;;;;;;46.88;19.25;;;;;;;-0.22;71.80;98385.47;5088010;28;20031;-79
2023/03/04 04:59:13;;;;;;;41.40;17.13;;;;;;;-0.20;71.47;98377.97;5088814;28;20048;-80
2023/03/04 05:01:38;;;;;;;64.05;21.80;;;;;;;-0.17;71.68;98386.44;5087087;28;20030;-80
2023/03/04 05:04:04;;;;;;;75.97;23.67;;;;;;;-0.19;71.66;98385.00;5089769;28;20051;-80
2023/03/04 05:06:29;;;;;;;60.65;22.83;;;;;;;-0.21;71.57;98379.03;5080020;28;20027;-79
2023/03/04 05:08:54;;;;;;;46.58;17.33;;;;;;;-0.22;71.47;98377.38;5083081;28;20036;-80
2023/03/04 05:11:20;;;;;;;44.35;18.70;;;;;;;-0.23;71.68;98379.25;5086087;28;20020;-80
2023/03/04 05:13:46;;;;;;;44.28;18.17;;;;;;;-0.24;71.67;98379.50;5090555;28;20047;-80
2023/03/04 05:16:12;;;;;;;42.63;16.38;;;;;;;-0.25;71.55;98375.94;5083316;28;20032;-80
2023/03/04 05:18:37;;;;;;;46.53;19.45;;;;;;;-0.24;71.60;98377.59;5086104;28;20020;-80
2023/03/04 05:21:04;;;;;;;45.20;18.38;;;;;;;-0.24;71.57;98377.59;5093115;28;20032;-80
2023/03/04 05:23:32;;;;;;;40.28;18.00;;;;;;;-0.22;71.98;98370.13;5087978;28;20032;-80
2023/03/04 05:25:58;;;;;;;39.97;17.30;;;;;;;-0.20;71.50;98367.16;5088108;28;20084;-80
2023/03/04 05:28:24;;;;;;;43.38;18.10;;;;;;;-0.23;71.25;98373.84;5088244;28;20047;-80
2023/03/04 05:30:49;;;;;;;45.60;18.67;;;;;;;-0.24;71.70;98374.91;5082830;28;20033;-80
2023/03/04 05:33:16;;;;;;;41.40;18.08;;;;;;;-0.25;71.82;98369.75;5080996;28;20190;-80
2023/03/04 05:35:42;;;;;;;45.92;18.98;;;;;;;-0.23;71.64;98371.16;5082901;28;20028;-80
2023/03/04 05:38:13;;;;;;;44.13;18.42;;;;;;;-0.22;71.43;98372.81;5085570;28;20024;-80
2023/03/04 05:40:38;;;;;;;;;;;;;;;-0.22;71.60;98366.59;5089381;28;20166;-80
2023/03/04 05:43:04;;;;;;;42.47;17.75;;;;;;;-0.24;71.25;98374.09;5091462;28;20014;-80
2023/03/04 05:45:29;;;;;;;48.72;20.05;;;;;;;-0.27;71.69;98363.78;5091491;28;20016;-80
2023/03/04 05:47:55;;;;;;;45.50;18.65;;;;;;;-0.30;71.64;98365.03;5094595;28;20025;-80
2023/03/04 05:50:22;;;;;;;45.53;18.80;;;;;;;-0.33;71.61;98362.78;5077382;28;20412;-79
2023/03/04 05:52:48;;;;;;;46.78;18.13;;;;;;;-0.38;71.46;98365.34;5082353;28;20384;-79
2023/03/04 05:55:14;;;;;;;54.83;21.58;;;;;;;-0.41;71.51;98366.63;5086219;28;20032;-80
2023/03/04 05:57:40;;;;;;;51.50;19.90;;;;;;;-0.44;71.39;98356.31;5086345;28;20016;-80
2023/03/04 06:00:09;;;;;;;49.05;20.63;;;;;;;-0.44;71.65;98358.19;5087363;28;20028;-80
2023/03/04 06:02:35;;;;;;;45.25;18.85;;;;;;;-0.45;71.74;98365.44;5087591;28;20024;-80
2023/03/04 06:05:01;;;;;;;46.75;17.85;;;;;;;-0.46;71.74;98367.31;5087868;28;20024;-80
2023/03/04 06:07:26;;;;;;;44.67;18.35;;;;;;;-0.46;71.47;98361.94;5076413;28;20587;-79
2023/03/04 06:09:52;;;;;;;38.85;17.05;;;;;;;-0.40;71.61;98364.75;5079492;28;20028;-80
2023/03/04 06:12:17;;;;;;;44.55;17.63;;;;;;;-0.35;72.01;98365.72;5081015;28;20020;-80
2023/03/04 06:14:43;;;;;;;41.08;16.38;;;;;;;-0.33;71.45;98360.94;5084127;28;20353;-80
2023/03/04 06:17:08;;;;;;;41.70;16.50;;;;;;;-0.28;71.88;98357.53;5088968;28;20380;-81
2023/03/04 06:19:33;;;;;;;39.95;17.55;;;;;;;-0.31;71.91;98358.84;5089201;28;20461;-80
2023/03/04 06:21:59;;;;;;;35.42;16.05;;;;;;;-0.28;71.43;98362.94;5091904;28;20153;-80
2023/03/04 06:24:27;;;;;;;38.80;16.70;;;;;;;-0.27;71.83;98348.41;5077366;28;20122;-80
2023/03/04 06:26:52;;;;;;;37.78;16.17;;;;;;;-0.24;71.41;98364.13;5076506;28;20476;-81
2023/03/04 06:29:18;;;;;;;37.13;16.63;;;;;;;-0.24;72.16;98360.63;5080207;28;20103;-80
2023/03/04 06:31:43;;;;;;;38.90;15.93;;;;;;;-0.22;72.05;98364.72;5081477;28;20540;-81
2023/03/04 06:34:08;;;;;;;35.35;16.30;;;;;;;-0.19;71.65;98374.22;5085901;28;20052;-81
2023/03/04 06:36:34;;;;;;;39.33;18.17;;;;;;;-0.19;71.34;98371.50;5071651;28;20016;-81
2023/03/04 06:39:03;;;;;;;39.50;16.77;;;;;;;-0.18;71.54;98375.84;5077700;28;20028;-81
2023/03/04 06:41:28;;;;;;;40.58;17.38;;;;;;;-0.16;71.25;98368.38;5075844;28;20650;-81
2023/03/04 06:43:54;;;;;;;31.13;14.45;;;;;;;-0.07;71.61;98377.78;5078682;28;20039;-80
2023/03/04 06:46:19;;;;;;;35.97;15.45;;;;;;;-0.05;71.17;98374.88;5079163;28;20032;-81
2023/03/04 06:48:44;;;;;;;32.55;15.15;;;;;;;-0.04;71.29;98371.94;5084352;28;20078;-81
2023/03/04 06:51:10;;;;;;;35.08;15.93;;;;;;;-0.02;71.78;98377.13;5084844;28;20031;-81
2023/03/04 06:53:37;;;;;;;39.13;16.77;;;;;;;-0.01;71.63;98374.19;5070764;28;20012;-81
2023/03/04 06:56:03;;;;;;;31.73;15.13;;;;;;;0.02;71.53;98374.78;5081168;28;20025;-81
2023/03/04 06:58:28;;;;;;;36.13;15.48;;;;;;;0.01;71.42;98379.31;5073337;28;20077;-81
2023/03/04 07:00:53;;;;;;;33.30;14.25;;;;;;;0.01;70.91;98370.44;5077811;28;20078;-81
2023/03/04 07:03:19;;;;;;;38.05;17.17;;;;;;;0.04;71.32;98375.38;5079479;28;20027;-82
2023/03/04 07:05:44;;;;;;;39.03;16.48;;;;;;;0.09;71.58;98383.59;5082057;28;20090;-81
2023/03/04 07:08:10;;;;;;;34.22;14.82;;;;;;;0.11;71.31;98376.09;5085177;28;20099;-81
2023/03/04 07:10:35;;;;;;;37.47;17.10;;;;;;;0.16;71.20;98378.09;5087287;28;20582;-82
2023/03/04 07:13:01;;;;;;;36.28;16.08;;;;;;;0.23;71.00;98392.31;5086421;28;20764;-82
2023/03/04 07:15:29;;;;;;;38.20;14.80;;;;;;;0.28;71.52;98395.94;5082329;28;20024;-82
2023/03/04 07:17:54;;;;;;;37.22;16.42;;;;;;;0.26;71.08;98387.25;5060123;28;20020;-82
2023/03/04 07:20:20;;;;;;;33.65;15.45;;;;;;;0.27;71.08;98386.22;5063321;28;20027;-82
2023/03/04 07:22:45;;;;;;;35.83;16.05;;;;;;;0.26;71.06;98387.25;5083617;28;20104;-81
2023/03/04 07:25:11;;;;;;;37.53;15.82;;;;;;;0.25;70.94;98385.63;5087670;28;20461;-82
2023/03/04 07:27:37;;;;;;;34.75;15.05;;;;;;;0.24;70.75;98400.16;5086475;28;20035;-82
2023/03/04 07:30:04;;;;;;;34.13;14.50;;;;;;;0.25;71.03;98398.28;5068011;28;20516;-82
2023/03/04 07:32:30;;;;;;;38.60;16.67;;;;;;;0.24;71.01;98385.84;5084791;28;20476;-82
2023/03/04 07:34:55;;;;;;;34.03;14.57;;;;;;;0.21;70.51;98400.63;5083967;28;20039;-81
2023/03/04 07:37:20;;;;;;;37.92;16.58;;;;;;;0.20;70.45;98398.16;5083047;28;20060;-82
2023/03/04 07:39:46;;;;;;;38.72;18.33;;;;;;;0.21;71.00;98400.63;5082447;28;20085;-81
2023/03/04 07:42:11;;;;;;;41.22;18.42;;;;;;;0.22;70.91;98398.75;5086238;28;20532;-82
2023/03/04 07:44:37;;;;;;;42.05;19.73;;;;;;;0.23;70.42;98395.00;5083964;28;20029;-81
2023/03/04 07:47:02;;;;;;;48.17;21.52;;;;;;;0.27;70.51;98399.69;5066180;28;20028;-81
2023/03/04 07:49:27;;;;;;;38.90;16.90;;;;;;;0.29;70.63;98407.56;5087483;28;20052;-79
2023/03/04 07:51:53;;;;;;;37.65;15.55;;;;;;;0.27;70.60;98405.09;5079868;28;20097;-78
2023/03/04 07:54:19;;;;;;;37.75;16.50;;;;;;;0.25;70.07;98412.59;5081180;28;20060;-78
2023/03/04 07:56:45;;;;;;;35.22;15.82;;;;;;;0.25;70.63;98409.09;5084326;28;20016;-79
2023/03/04 07:59:10;;;;;;;40.92;17.85;;;;;;;0.28;70.81;98414.84;5072409;28;20036;-79
2023/03/04 08:01:36;;;;;;;35.03;15.57;;;;;;;0.30;70.87;98411.91;5086099;28;20029;-80
2023/03/04 08:04:05;;;;;;;37.63;17.58;;;;;;;0.33;70.39;98421.41;5088368;28;20109;-80
2023/03/04 08:06:32;;;;;;;40.45;17.73;;;;;;;0.32;70.54;98415.22;5072069;28;20031;-81
2023/03/04 08:09:04;;;;;;;34.78;15.98;;;;;;;0.34;70.12;98431.16;5088465;28;20036;-81
2023/03/04 08:11:30;;;;;;;38.40;17.45;;;;;;;0.32;70.38;98427.88;5088789;28;20384;-81
2023/03/04 08:13:56;;;;;;;37.90;16.30;;;;;;;0.30;70.00;98425.41;5090744;28;20464;-81
2023/03/04 08:16:23;;;;;;;45.83;20.13;;;;;;;0.32;70.43;98426.00;5063631;28;20020;-81
2023/03/04 08:18:53;;;;;;;41.40;20.05;;;;;;;0.35;69.78;98427.41;5085445;28;20052;-81
2023/03/04 08:21:21;;;;;;;42.80;18.33;;;;;;;0.34;70.09;98433.84;5087938;28;20481;-81
2023/03/04 08:23:47;;;;;;;31.88;15.52;;;;;;;0.35;69.92;98430.09;5072270;28;20040;-81
2023/03/04 08:26:17;;;;;;;32.80;14.68;;;;;;;0.35;69.81;98438.19;5089083;28;20028;-81
2023/03/04 08:28:44;;;;;;;36.03;16.08;;;;;;;0.36;69.88;98424.50;5089909;28;20020;-81
2023/03/04 08:31:11;;;;;;;34.55;16.33;;;;;;;0.40;68.88;98433.78;5083586;28;20013;-81
2023/03/04 08:33:37;;;;;;;29.55;15.20;;;;;;;0.41;69.76;98421.91;5080267;28;20048;-81
2023/03/04 08:36:02;;;;;;;31.63;14.82;;;;;;;0.51;69.53;98429.44;5082820;28;20060;-80
2023/03/04 08:38:28;;;;;;;28.98;14.15;;;;;;;0.58;69.73;98423.94;5086748;28;20027;-80
2023/03/04 08:40:55;;;;;;;29.13;14.15;;;;;;;0.62;68.89;98432.38;5088897;28;20488;-80
2023/03/04 08:43:21;;;;;;;30.17;14.30;;;;;;;0.66;69.01;98433.56;5093740;28;20073;-81
2023/03/04 08:45:47;;;;;;;32.65;14.65;;;;;;;0.75;68.97;98413.28;5090473;28;20066;-81
2023/03/04 08:48:12;;;;;;;31.58;14.90;;;;;;;0.83;68.99;98422.91;5080872;28;20048;-81
2023/03/04 08:50:37;;;;;;;32.03;15.05;;;;;;;0.87;69.07;98419.53;5079136;28;20386;-81
2023/03/04 08:53:03;;;;;;;29.35;13.85;;;;;;;0.86;68.65;98423.28;5063925;28;20040;-81
2023/03/04 08:55:28;;;;;;;27.20;13.45;;;;;;;0.85;67.99;98426.19;5084863;28;20096;-81
2023/03/04 08:57:53;;;;;;;27.95;13.68;;;;;;;0.82;68.51;98411.31;5087468;28;20028;-82
2023/03/04 09:00:21;;;;;;;26.52;14.27;;;;;;;0.81;68.19;98411.53;5090029;28;20025;-81
2023/03/04 09:02:46;;;;;;;29.52;14.23;;;;;;;0.80;68.27;98410.72;5066177;28;20031;-80
2023/03/04 09:05:12;;;;;;;26.63;13.77;;;;;;;0.79;68.36;98405.56;5078312;28;20032;-80
2023/03/04 09:07:37;;;;;;;33.08;14.70;;;;;;;0.82;68.04;98400.50;5078316;28;20422;-79
2023/03/04 09:10:04;;;;;;;30.55;13.70;;;;;;;0.85;68.20;98400.03;5076647;28;20031;-80
2023/03/04 09:12:29;;;;;;;29.70;14.55;;;;;;;0.87;68.25;98399.78;5084814;28;20028;-81
2023/03/04 09:14:54;;;;;;;35.70;16.60;;;;;;;0.84;68.08;98408.34;5086756;28;20039;-80
2023/03/04 09:17:20;;;;;;;35.88;16.55;;;;;;;0.88;67.87;98401.44;5090480;28;20085;-81
2023/03/04 09:19:46;;;;;;;47.60;20.55;;;;;;;0.89;68.04;98403.06;5080199;28;20033;-80
2023/03/04 09:22:12;;;;;;;51.20;22.02;;;;;;;0.93;68.23;98412.34;5076052;28;20035;-80
2023/03/04 09:24:37;;;;;;;49.15;21.50;;;;;;;0.93;67.97;98406.16;5082311;28;20024;-80
2023/03/04 09:27:03;;;;;;;50.03;21.90;;;;;;;0.92;67.60;98415.31;5082950;28;20032;-79
2023/03/04 09:29:28;;;;;;;49.30;21.92;;;;;;;0.87;68.08;98402.50;5086361;28;20017;-84
2023/03/04 09:31:54;;;;;;;49.42;21.85;;;;;;;0.88;67.83;98396.88;5088924;28;20020;-84
2023/03/04 09:34:19;;;;;;;44.72;22.27;;;;;;;0.91;67.61;98400.16;5088708;28;20671;-84
2023/03/04 09:36:45;;;;;;;51.42;22.58;;;;;;;0.87;67.90;98391.69;5086974;28;20027;-81
2023/03/04 09:39:10;;;;;;;52.00;22.75;;;;;;;0.85;67.98;98408.13;5082292;28;20030;-83
2023/03/04 09:41:41;;;;;;;48.75;20.80;;;;;;;0.83;68.14;98394.03;5081296;28;20040;-84
2023/03/04 09:44:23;;;;;;;49.00;20.73;;;;;;;0.85;68.27;98391.94;5084033;28;20028;-84
2023/03/04 09:46:50;;;;;;;49.65;21.55;;;;;;;0.88;68.12;98396.03;5086454;28;20032;-84
2023/03/04 09:49:18;;;;;;;50.08;22.85;;;;;;;0.89;68.01;98381.47;5072778;28;20012;-84
2023/03/04 09:52:10;;;;;;;57.53;24.42;;;;;;;0.88;68.40;98379.81;5089715;28;20419;-83
2023/03/04 09:55:14;;;;;;;55.85;24.05;;;;;;;0.91;68.47;98383.94;5102339;28;20024;-83
2023/03/04 09:58:06;;;;;;;53.78;23.30;;;;;;;0.94;68.51;98383.50;5092300;28;20361;-84
2023/03/04 10:00:40;;;;;;;58.85;24.02;;;;;;;0.88;67.76;98380.66;5046157;28;20049;-83
2023/03/04 10:03:12;;;;;;;57.50;23.17;;;;;;;0.85;68.29;98383.84;5089419;28;20055;-85
2023/03/04 10:06:06;;;;;;;59.05;23.95;;;;;;;0.84;67.98;98381.34;5096295;28;20383;-84
2023/03/04 10:08:40;;;;;;;53.55;22.08;;;;;;;0.82;68.67;98386.16;5104173;28;20027;-86
2023/03/04 10:11:16;;;;;;;57.08;22.95;;;;;;;0.78;68.66;98380.41;5092568;28;20103;-80
2023/03/04 10:13:57;;;;;;;52.45;21.98;;;;;;;0.75;68.53;98370.09;5079323;28;20111;-81
2023/03/04 10:16:28;;;;;;;54.30;22.83;;;;;;;0.82;68.67;98376.19;5083944;28;20024;-81
2023/03/04 10:19:00;;;;;;;58.22;23.10;;;;;;;0.85;68.94;98372.19;5084332;28;20039;-80
2023/03/04 10:21:33;;;;;;;63.95;24.75;;;;;;;0.84;68.81;98365.16;5072217;28;20032;-81
2023/03/04 10:24:04;;;;;;;59.60;25.25;;;;;;;0.86;68.64;98373.84;5098655;28;20028;-80
2023/03/04 10:26:32;;;;;;;58.38;24.00;;;;;;;0.89;68.93;98362.56;5088087;28;20112;-80
2023/03/04 10:28:58;;;;;;;63.65;24.88;;;;;;;0.97;68.69;98358.72;5085545;28;20376;-81
2023/03/04 10:31:35;;;;;;;54.58;23.60;;;;;;;0.96;68.41;98362.47;5091567;28;20020;-81
2023/03/04 10:34:03;;;;;;;60.80;24.88;;;;;;;0.95;68.32;98356.22;5071614;28;20028;-81
2023/03/04 10:36:29;;;;;;;52.30;22.20;;;;;;;0.97;68.26;98358.72;5090215;28;20051;-84
2023/03/04 10:39:06;;;;;;;58.92;22.45;;;;;;;0.95;68.63;98355.44;5104585;28;20055;-80
2023/03/04 10:41:32;;;;;;;55.90;22.92;;;;;;;0.96;68.47;98348.97;5090254;28;20101;-81
2023/03/04 10:43:57;;;;;;;52.80;20.77;;;;;;;0.98;68.83;98349.56;5063471;28;20059;-81
2023/03/04 10:46:22;;;;;;;53.08;22.38;;;;;;;0.97;68.85;98345.22;5089401;28;20047;-81
2023/03/04 10:48:49;;;;;;;50.08;21.35;;;;;;;0.99;68.45;98341.19;5071561;28;20021;-81
2023/03/04 10:51:23;;;;;;;49.53;21.98;;;;;;;1.01;68.70;98338.28;5098079;28;20032;-81
2023/03/04 10:54:05;;;;;;;50.67;21.73;;;;;;;1.02;68.51;98345.28;5089593;28;20091;-81
2023/03/04 10:56:44;;;;;;;53.15;22.92;;;;;;;1.06;69.08;98332.16;5086743;28;20035;-83
2023/03/04 10:59:35;;;;;;;51.92;21.50;;;;;;;1.09;68.44;98331.69;5090276;28;20396;-85
2023/03/04 11:02:13;;;;;;;61.50;22.92;;;;;;;1.14;68.79;98334.50;5088844;28;20028;-87
2023/03/04 11:04:38;;;;;;;58.95;22.52;;;;;;;1.15;68.94;98328.03;5090963;28;20042;-85
2023/03/04 11:07:10;;;;;;;53.53;21.60;;;;;;;1.15;68.81;98334.25;5089763;28;20117;-88
2023/03/04 11:09:38;;;;;;;44.58;19.92;;;;;;;1.21;68.27;98331.66;5099302;28;20077;-88
2023/03/04 11:12:11;;;;;;;45.22;19.80;;;;;;;1.22;68.73;98322.50;5090030;28;20111;-89
2023/03/04 11:14:43;;;;;;;45.92;20.10;;;;;;;1.23;68.90;98322.25;5085068;28;20127;-84
2023/03/04 11:17:14;;;;;;;47.88;20.52;;;;;;;1.25;68.71;98317.41;5066829;28;20027;-88
2023/03/04 11:19:44;;;;;;;48.05;19.45;;;;;;;1.26;69.13;98323.66;5094905;28;20110;-89
2023/03/04 11:22:14;;;;;;;52.38;21.67;;;;;;;1.24;68.15;98309.56;5081043;28;20106;-88